Jeffersonville, Illinois
Current Conditions -  °F | °C
As of 8:55 AM on Tuesday 21 Oct 2014 (Local Time) from KFWC Reporting Station
Clear Clear  
Wind Chill: 51°   Ceiling: Unl
Heat Index: 51°   Visibility: 10mi
Dew Point: 47°   Wind: 5mph
Humidity: 86%   Direction: 30°NNE
Pressure: 30.09"   Gusts: NA
Location:  38.4399°N, 88.4246°W
Report Text: KFWC 211355Z AUTO 03004KT 10SM CLR 11/09 A3009 RMK AO1 T01070085
Loading
Personal Weather Stations






























Interactive Weather Map
Tropical Storm Tracking
New forecast layout! Learn more

10-Day Weather Forecast

Advertisements
Track Severe Weather on mobile